createdAt,value
2023-02-23T00:05:37.421Z,20.3
2023-02-23T00:11:31.032Z,21.3
2023-02-23T00:17:22.558Z,20.3
2023-02-23T00:28:55.045Z,20.4
2023-02-23T00:34:50.784Z,21.5
2023-02-23T00:40:42.843Z,19.3
2023-02-23T00:46:37.434Z,18.5
2023-02-23T00:52:30.487Z,18.1
2023-02-23T00:58:22.997Z,17.9
2023-02-23T01:04:16.219Z,17.8
2023-02-23T01:10:09.086Z,20.4
2023-02-23T01:16:02.176Z,21.4
2023-02-23T01:21:56.174Z,19.9
2023-02-23T01:27:33.902Z,18.6
2023-02-23T01:33:28.998Z,18.1
2023-02-23T01:39:22.595Z,17.9
2023-02-23T01:45:14.446Z,17.8
2023-02-23T01:50:52.267Z,20
2023-02-23T01:56:46.085Z,21.1
2023-02-23T02:02:23.137Z,20.9
2023-02-23T02:08:15.869Z,19
2023-02-23T02:14:09.934Z,18.3
2023-02-23T02:19:46.682Z,17.9
2023-02-23T02:25:24.885Z,17.9
2023-02-23T02:31:19.156Z,18.6
2023-02-23T02:37:12.246Z,20.1
2023-02-23T02:43:05.122Z,17.7
2023-02-23T02:48:43.807Z,20.4
2023-02-23T02:54:21.261Z,21.3
2023-02-23T02:59:58.194Z,19.8
2023-02-23T03:05:36.693Z,18.6
2023-02-23T03:10:57.439Z,18.1
2023-02-23T03:16:35.380Z,17.8
2023-02-23T03:22:13.831Z,17.8
2023-02-23T03:27:51.087Z,19.6
2023-02-23T03:33:12.199Z,20.9
2023-02-23T03:38:18.829Z,21.4
2023-02-23T03:43:57.088Z,19.4
2023-02-23T03:49:34.712Z,18.5
2023-02-23T03:55:29.507Z,18.1
2023-02-23T04:01:07.364Z,17.9
2023-02-23T04:06:43.850Z,17.7
2023-02-23T04:12:07.187Z,19.9
2023-02-23T04:17:28.781Z,21.1
2023-02-23T04:23:05.355Z,20.9
2023-02-23T04:28:27.683Z,19
2023-02-23T04:34:22.001Z,19.6
2023-02-23T04:45:36.227Z,20
2023-02-23T04:56:54.315Z,18.2
2023-02-23T05:02:50.546Z,17.8
2023-02-23T05:08:42.689Z,17.8
2023-02-23T05:14:34.287Z,19.3
2023-02-23T05:20:28.756Z,20.3
2023-02-23T05:26:21.803Z,17.3
2023-02-23T05:32:15.332Z,20.3
2023-02-23T05:38:09.490Z,21.3
2023-02-23T05:44:01.938Z,19.7
2023-02-23T05:49:39.210Z,18.5
2023-02-23T05:55:17.861Z,18.1
2023-02-23T06:00:54.544Z,17.8
2023-02-23T06:06:47.255Z,17.7
2023-02-23T06:12:41.425Z,19.7
2023-02-23T06:18:33.551Z,20.9
2023-02-23T06:24:25.261Z,20.8
2023-02-23T06:30:20.734Z,18.9
2023-02-23T06:36:14.227Z,18.3
2023-02-23T06:42:05.628Z,17.9
2023-02-23T06:47:58.979Z,17.8
2023-02-23T06:59:30.867Z,20.8
2023-02-23T07:05:24.998Z,21.4
2023-02-23T07:11:17.957Z,19.1
2023-02-23T07:17:14.520Z,19.4
2023-02-23T07:23:08.015Z,21.2
2023-02-23T07:29:00.403Z,19.6
2023-02-23T07:34:54.349Z,18.5
2023-02-23T07:40:48.607Z,18.1
2023-02-23T07:46:41.781Z,17.9
2023-02-23T07:52:34.765Z,17.7
2023-02-23T07:58:30.012Z,20.1
2023-02-23T08:04:23.074Z,21.3
2023-02-23T08:10:14.624Z,19.8
2023-02-23T08:16:10.464Z,18.5
2023-02-23T08:22:02.729Z,19.9
2023-02-23T08:28:07.050Z,21.6
2023-02-23T08:34:02.460Z,19.2
2023-02-23T08:39:55.201Z,18.4
2023-02-23T08:45:47.475Z,20.4
2023-02-23T08:51:41.295Z,21.1
2023-02-23T08:57:17.935Z,19
2023-02-23T09:03:09.285Z,18.3
2023-02-23T09:09:03.424Z,20.8
2023-02-23T09:14:56.102Z,20.6
2023-02-23T09:20:48.600Z,18.8
2023-02-23T09:26:27.072Z,18.3
2023-02-23T09:32:07.704Z,21.2
2023-02-23T09:37:44.471Z,20.1
2023-02-23T09:49:27.045Z,18.3
2023-02-23T09:55:20.136Z,21.5
2023-02-23T10:01:14.180Z,19.8
2023-02-23T10:06:53.725Z,18.6
2023-02-23T10:12:48.962Z,18.9
2023-02-23T10:18:40.728Z,21.8
2023-02-23T10:24:38.087Z,19.4
2023-02-23T10:30:29.922Z,18.4
2023-02-23T10:36:15.219Z,19.5
2023-02-23T10:42:07.631Z,21.6
2023-02-23T10:47:51.508Z,19.2
2023-02-23T10:53:33.016Z,18.4
2023-02-23T10:59:28.746Z,19.3
2023-02-23T11:05:46.338Z,21.7
2023-02-23T11:11:56.949Z,19.1
2023-02-23T11:18:02.672Z,18.4
2023-02-23T11:24:04.248Z,18.1
2023-02-23T11:29:58.843Z,17.7
2023-02-23T11:35:51.732Z,17.5
2023-02-23T11:41:44.251Z,17.3
2023-02-23T11:47:42.779Z,17.1
2023-02-23T11:53:35.159Z,16.8
2023-02-23T11:59:11.693Z,16.7
2023-02-23T12:05:07.140Z,16.5
2023-02-23T12:10:44.862Z,16.3
2023-02-23T12:16:38.749Z,16.3
2023-02-23T12:22:31.554Z,16.1
2023-02-23T12:28:36.064Z,15.9
2023-02-23T12:34:29.043Z,15.8
2023-02-23T12:40:22.768Z,15.7
2023-02-23T12:46:15.259Z,15.6
2023-02-23T12:51:53.247Z,15.6
2023-02-23T12:57:46.193Z,15.4
2023-02-23T13:03:41.399Z,15.4
2023-02-23T13:09:41.116Z,15.3
2023-02-23T13:15:35.298Z,15.3
2023-02-23T13:21:12.608Z,15.1
2023-02-23T13:26:49.849Z,15.1
2023-02-23T13:32:32.130Z,15.1
2023-02-23T13:38:32.092Z,15
2023-02-23T13:44:37.048Z,14.9
2023-02-23T13:50:37.972Z,14.9
2023-02-23T13:56:39.874Z,14.8
2023-02-23T14:02:34.066Z,14.8
2023-02-23T14:07:56.970Z,14.8
2023-02-23T14:13:54.256Z,14.8
2023-02-23T14:19:47.000Z,14.7
2023-02-23T14:25:50.631Z,14.6
2023-02-23T14:32:01.151Z,14.6
2023-02-23T14:37:49.292Z,14.6
2023-02-23T14:43:51.704Z,14.6
2023-02-23T14:49:57.976Z,14.6
2023-02-23T14:55:47.197Z,14.5
2023-02-23T15:01:49.965Z,14.5
2023-02-23T15:07:57.455Z,14.5
2023-02-23T15:13:49.883Z,14.4
2023-02-23T15:19:50.879Z,14.4
2023-02-23T15:25:54.006Z,14.4
2023-02-23T15:32:01.251Z,14.4
2023-02-23T15:37:59.803Z,14.4
2023-02-23T15:44:21.800Z,14.4
2023-02-23T15:50:34.821Z,14.3
2023-02-23T15:56:14.461Z,14.3
2023-02-23T16:02:16.071Z,14.3
2023-02-23T16:08:16.480Z,14.3
2023-02-23T16:14:10.765Z,14.3
2023-02-23T16:20:13.631Z,14.3
2023-02-23T16:26:14.248Z,14.3
2023-02-23T16:31:36.513Z,14.3
2023-02-23T16:37:15.146Z,14.3
2023-02-23T16:43:07.339Z,14.3
2023-02-23T16:49:09.766Z,14.3
2023-02-23T16:55:07.359Z,14.3
2023-02-23T17:01:00.675Z,14.3
2023-02-23T17:06:50.935Z,14.3
2023-02-23T17:12:51.270Z,14.2
2023-02-23T17:18:44.232Z,14.2
2023-02-23T17:24:37.435Z,14.2
2023-02-23T17:30:31.284Z,14.2
2023-02-23T17:36:28.309Z,14.2
2023-02-23T17:42:21.428Z,14.2
2023-02-23T17:48:15.779Z,14.2
2023-02-23T17:54:08.567Z,14.2
2023-02-23T18:00:03.482Z,14.1
2023-02-23T18:05:58.325Z,14.1
2023-02-23T18:11:35.046Z,14.1
2023-02-23T18:17:28.954Z,14.1
2023-02-23T18:23:24.187Z,14.1
2023-02-23T18:29:00.222Z,14.2
2023-02-23T18:34:55.768Z,14.1
2023-02-23T18:40:49.869Z,14.1
2023-02-23T18:46:26.162Z,14.1
2023-02-23T18:52:04.750Z,14.1
2023-02-23T18:57:59.564Z,14.1
2023-02-23T19:03:53.384Z,14.1
2023-02-23T19:09:32.682Z,14.1
2023-02-23T19:15:39.799Z,14.1
2023-02-23T19:21:32.796Z,14.1
2023-02-23T19:27:10.460Z,14.1
2023-02-23T19:33:05.958Z,14.1
2023-02-23T19:38:58.074Z,14.1
2023-02-23T19:44:51.341Z,14.1
2023-02-23T19:50:44.542Z,14.1
2023-02-23T19:56:35.632Z,14.1
2023-02-23T20:02:29.238Z,14.1
2023-02-23T20:08:23.206Z,13.9
2023-02-23T20:14:15.476Z,14
2023-02-23T20:20:08.915Z,14
2023-02-23T20:26:01.518Z,14
2023-02-23T20:31:55.473Z,14
2023-02-23T20:37:49.244Z,14
2023-02-23T20:43:43.625Z,16.4
2023-02-23T20:49:35.644Z,20
2023-02-23T21:00:52.483Z,21.7
2023-02-23T21:06:46.817Z,22.1
2023-02-23T21:12:40.238Z,20.6
2023-02-23T21:18:17.803Z,21.6
2023-02-23T21:24:12.731Z,21.3
2023-02-23T21:35:32.421Z,21.8
2023-02-23T21:41:25.056Z,19.3
2023-02-23T21:47:18.577Z,21.6
2023-02-23T21:53:11.985Z,20.9
2023-02-23T21:59:11.478Z,18.9
2023-02-23T22:05:05.388Z,21.5
2023-02-23T22:10:42.279Z,20.8
2023-02-23T22:16:34.271Z,18.9
2023-02-23T22:22:28.900Z,20.9
2023-02-23T22:28:21.424Z,21.8
2023-02-23T22:34:15.212Z,19.3
2023-02-23T22:39:52.063Z,18.9
2023-02-23T22:45:45.462Z,21.6
2023-02-23T22:52:22.180Z,20.5
2023-02-23T22:57:59.998Z,18.8
2023-02-23T23:03:52.967Z,20.3
2023-02-23T23:09:46.575Z,21.9
2023-02-23T23:15:40.854Z,19.5
2023-02-23T23:21:52.901Z,18.6
2023-02-23T23:27:44.567Z,20.9
2023-02-23T23:33:39.523Z,21.4
2023-02-23T23:39:32.559Z,19.2
2023-02-23T23:45:24.501Z,18.6
2023-02-23T23:51:18.064Z,21.1
2023-02-23T23:57:11.619Z,21.1
